createdAt,value
2022-11-15T00:01:43.838Z,23.75
2022-11-15T00:04:32.351Z,21.15
2022-11-15T00:07:48.291Z,22.05
2022-11-15T00:10:29.018Z,25.35
2022-11-15T00:17:04.875Z,23.33
2022-11-15T00:20:34.077Z,23.65
2022-11-15T00:37:34.251Z,22.63
2022-11-15T00:40:42.759Z,27.10
2022-11-15T00:43:52.266Z,29.77
2022-11-15T00:59:35.651Z,27.15
2022-11-15T01:02:47.045Z,25.23
2022-11-15T01:05:35.348Z,29.95
2022-11-15T01:09:22.986Z,21.77
2022-11-15T01:12:12.304Z,24.98
2022-11-15T01:15:24.759Z,25.30
2022-11-15T01:32:18.857Z,21.95
2022-11-15T01:35:07.815Z,25.48
2022-11-15T01:38:16.673Z,23.70
2022-11-15T01:41:28.219Z,24.40
2022-11-15T01:44:38.110Z,28.27
2022-11-15T02:04:22.996Z,21.70
2022-11-15T02:07:41.250Z,27.08
2022-11-15T02:10:31.299Z,24.60
2022-11-15T02:13:41.828Z,25.40
2022-11-15T02:17:05.403Z,28.38
2022-11-15T02:20:00.909Z,27.52
2022-11-15T02:23:13.754Z,26.70
2022-11-15T02:26:27.349Z,26.80
2022-11-15T03:08:15.180Z,27.05
2022-11-15T03:11:38.480Z,23.23
2022-11-15T03:15:05.474Z,27.00
2022-11-15T03:18:30.430Z,25.15
2022-11-15T03:21:42.915Z,26.63
2022-11-15T03:24:34.183Z,24.92
2022-11-15T03:27:44.691Z,23.95
2022-11-15T03:30:56.063Z,25.40
2022-11-15T03:33:46.518Z,26.88
2022-11-15T03:53:34.896Z,27.60
2022-11-15T03:56:23.735Z,29.55
2022-11-15T03:59:32.582Z,27.50
2022-11-15T04:03:33.790Z,27.25
2022-11-15T04:06:23.472Z,27.33
2022-11-15T04:09:12.899Z,27.02
2022-11-15T04:12:33.552Z,27.83
2022-11-15T04:53:14.098Z,28.95
2022-11-15T04:56:44.766Z,27.55
2022-11-15T04:59:36.344Z,24.70
2022-11-15T05:02:25.166Z,30.35
2022-11-15T05:05:33.810Z,24.92
2022-11-15T05:31:10.950Z,24.25
2022-11-15T05:34:45.391Z,23.58
2022-11-15T05:37:34.106Z,24.80
2022-11-15T05:40:23.217Z,26.73
2022-11-15T05:43:33.669Z,22.30
2022-11-15T05:46:43.591Z,25.23
2022-11-15T05:50:18.249Z,24.77
2022-11-15T05:53:48.096Z,22.57
2022-11-15T05:56:37.312Z,24.50
2022-11-15T06:15:54.567Z,21.55
2022-11-15T06:19:35.243Z,23.00
2022-11-15T06:26:11.719Z,22.35
2022-11-15T06:29:01.153Z,21.67
2022-11-15T06:34:55.031Z,22.67
2022-11-15T06:37:46.744Z,20.02
2022-11-15T06:40:58.754Z,22.65
2022-11-15T06:43:53.934Z,21.65
2022-11-15T06:46:43.502Z,17.60
2022-11-15T06:49:36.973Z,18.77
2022-11-15T06:55:29.906Z,19.08
2022-11-15T06:58:19.760Z,16.67
2022-11-15T07:01:14.300Z,19.88
2022-11-15T07:04:04.463Z,18.92
2022-11-15T07:06:53.902Z,18.17
2022-11-15T07:09:43.111Z,16.15
2022-11-15T07:12:31.819Z,17.08
2022-11-15T07:15:25.731Z,19.52
2022-11-15T07:21:27.416Z,16.75
2022-11-15T07:24:17.120Z,14.88
2022-11-15T07:27:07.318Z,19.33
2022-11-15T07:29:57.859Z,17.95
2022-11-15T07:32:46.377Z,16.40
2022-11-15T07:35:34.824Z,17.15
2022-11-15T07:38:23.718Z,15.38
2022-11-15T07:41:15.110Z,15.88
2022-11-15T07:44:03.866Z,15.65
2022-11-15T07:46:52.703Z,16.38
2022-11-15T07:49:41.093Z,16.63
2022-11-15T07:52:29.824Z,16.33
2022-11-15T07:55:18.822Z,14.75
2022-11-15T07:58:09.642Z,13.10
2022-11-15T08:00:58.303Z,13.70
2022-11-15T08:03:46.636Z,16.02
2022-11-15T08:06:35.652Z,21.23
2022-11-15T08:09:24.167Z,18.70
2022-11-15T08:12:12.783Z,18.35
2022-11-15T08:15:01.347Z,23.23
2022-11-15T08:17:50.742Z,22.25
2022-11-15T08:20:50.729Z,21.08
2022-11-15T08:23:39.036Z,19.83
2022-11-15T08:26:31.290Z,18.42
2022-11-15T08:29:19.574Z,20.83
2022-11-15T08:32:08.178Z,18.55
2022-11-15T08:34:56.664Z,17.58
2022-11-15T08:37:45.137Z,18.33
2022-11-15T08:40:33.802Z,18.40
2022-11-15T08:43:22.663Z,17.10
2022-11-15T08:46:16.207Z,23.00
2022-11-15T08:49:05.318Z,21.80
2022-11-15T08:52:03.090Z,22.02
2022-11-15T08:57:54.978Z,19.05
2022-11-15T09:00:46.295Z,21.73
2022-11-15T09:03:35.882Z,19.50
2022-11-15T09:09:29.383Z,15.80
2022-11-15T09:12:18.564Z,16.42
2022-11-15T09:15:09.076Z,17.80
2022-11-15T09:18:00.827Z,16.88
2022-11-15T09:20:49.708Z,16.48
2022-11-15T09:23:38.509Z,15.77
2022-11-15T09:26:27.129Z,16.58
2022-11-15T09:29:15.769Z,16.58
2022-11-15T09:32:04.401Z,17.85
2022-11-15T09:34:53.484Z,14.98
2022-11-15T09:37:41.708Z,16.65
2022-11-15T09:40:32.684Z,16.70
2022-11-15T09:43:50.631Z,16.02
2022-11-15T09:47:17.194Z,17.98
2022-11-15T09:50:14.106Z,19.30
2022-11-15T09:52:47.693Z,17.52
2022-11-15T09:58:29.618Z,16.42
2022-11-15T10:01:07.448Z,16.70
2022-11-15T10:03:44.027Z,17.15
2022-11-15T10:06:28.263Z,19.08
2022-11-15T10:09:10.431Z,16.08
2022-11-15T10:11:42.551Z,16.52
2022-11-15T10:14:21.964Z,16.83
2022-11-15T10:17:13.469Z,17.35
2022-11-15T10:20:05.931Z,17.92
2022-11-15T10:22:51.826Z,16.13
2022-11-15T10:25:26.568Z,15.27
2022-11-15T10:28:18.805Z,15.48
2022-11-15T10:30:55.952Z,17.05
2022-11-15T10:33:41.262Z,17.08
2022-11-15T10:36:19.195Z,16.00
2022-11-15T10:39:12.408Z,14.73
2022-11-15T10:41:44.916Z,15.65
2022-11-15T10:44:25.685Z,15.18
2022-11-15T10:46:59.358Z,15.18
2022-11-15T10:49:32.091Z,13.93
2022-11-15T10:52:15.567Z,13.43
2022-11-15T10:55:09.214Z,14.90
2022-11-15T10:57:41.393Z,13.23
2022-11-15T11:00:23.994Z,12.23
2022-11-15T11:03:02.004Z,13.18
2022-11-15T11:05:43.391Z,12.93
2022-11-15T11:08:14.001Z,12.40
2022-11-15T11:11:03.820Z,12.25
2022-11-15T11:13:38.079Z,14.77
2022-11-15T11:16:22.598Z,12.05
2022-11-15T11:19:11.158Z,11.30
2022-11-15T11:21:59.667Z,12.52
2022-11-15T11:24:48.456Z,10.93
2022-11-15T11:27:24.785Z,11.60
2022-11-15T11:30:01.918Z,11.50
2022-11-15T11:32:58.976Z,10.05
2022-11-15T11:38:41.879Z,13.32
2022-11-15T11:41:30.748Z,10.75
2022-11-15T11:44:07.162Z,13.25
2022-11-15T11:46:40.614Z,13.35
2022-11-15T11:49:22.382Z,12.32
2022-11-15T11:52:03.979Z,10.73
2022-11-15T11:55:25.074Z,11.38
2022-11-15T11:58:10.525Z,11.63
2022-11-15T12:00:56.105Z,11.88
2022-11-15T12:03:49.109Z,11.48
2022-11-15T12:06:35.318Z,9.45
2022-11-15T12:12:20.967Z,12.05
2022-11-15T12:15:18.383Z,9.75
2022-11-15T12:17:51.056Z,10.40
2022-11-15T12:20:46.075Z,9.98
2022-11-15T12:23:31.610Z,12.25
2022-11-15T12:26:14.362Z,10.23
2022-11-15T12:29:06.849Z,10.02
2022-11-15T12:31:38.402Z,11.93
2022-11-15T12:34:32.067Z,11.70
2022-11-15T12:37:03.308Z,10.73
2022-11-15T12:40:11.067Z,11.13
2022-11-15T12:42:46.610Z,9.98
2022-11-15T12:45:45.607Z,9.50
2022-11-15T12:51:08.036Z,9.65
2022-11-15T12:53:41.094Z,9.50
2022-11-15T12:56:18.608Z,8.82
2022-11-15T12:58:54.482Z,8.80
2022-11-15T13:01:48.278Z,10.43
2022-11-15T13:07:01.590Z,10.13
2022-11-15T13:09:38.628Z,10.73
2022-11-15T13:12:30.545Z,10.13
2022-11-15T13:15:25.777Z,9.45
2022-11-15T13:20:47.735Z,9.05
2022-11-15T13:23:19.525Z,10.32
2022-11-15T13:26:18.841Z,8.93
2022-11-15T13:28:57.026Z,9.25
2022-11-15T13:31:39.050Z,11.23
2022-11-15T13:34:50.526Z,9.40
2022-11-15T13:37:32.202Z,9.05
2022-11-15T13:40:34.961Z,8.13
2022-11-15T13:43:26.494Z,8.20
2022-11-15T13:46:19.630Z,10.07
2022-11-15T13:49:01.793Z,8.38
2022-11-15T13:51:58.435Z,9.07
2022-11-15T13:54:43.027Z,8.65
2022-11-15T13:57:56.054Z,9.02
2022-11-15T14:00:29.416Z,8.32
2022-11-15T14:03:08.744Z,7.18
2022-11-15T14:05:40.841Z,8.52
2022-11-15T14:08:27.236Z,8.35
2022-11-15T14:11:19.674Z,8.02
2022-11-15T14:14:17.944Z,7.90
2022-11-15T14:16:51.975Z,6.30
2022-11-15T14:22:28.442Z,7.68
2022-11-15T14:28:22.304Z,7.70
2022-11-15T14:30:58.295Z,7.47
2022-11-15T14:33:35.975Z,7.43
2022-11-15T14:36:15.573Z,7.05
2022-11-15T14:38:46.834Z,8.68
2022-11-15T14:41:29.530Z,6.85
2022-11-15T14:44:00.461Z,6.80
2022-11-15T14:46:31.095Z,7.15
2022-11-15T14:49:01.923Z,7.35
2022-11-15T14:51:35.052Z,6.88
2022-11-15T14:54:05.962Z,7.60
2022-11-15T14:56:36.692Z,7.53
2022-11-15T14:59:07.326Z,7.95
2022-11-15T15:01:37.861Z,7.05
2022-11-15T15:06:55.494Z,8.07
2022-11-15T15:09:26.431Z,7.53
2022-11-15T15:11:59.756Z,9.00
2022-11-15T15:14:32.647Z,6.95
2022-11-15T15:17:03.961Z,6.88
2022-11-15T15:19:34.745Z,6.85
2022-11-15T15:22:05.457Z,7.85
2022-11-15T15:24:36.456Z,7.60
2022-11-15T15:27:07.344Z,7.60
2022-11-15T15:29:38.814Z,9.05
2022-11-15T15:32:09.647Z,8.00
2022-11-15T15:34:41.496Z,9.05
2022-11-15T15:37:26.476Z,8.40
2022-11-15T15:39:59.378Z,9.38
2022-11-15T15:42:30.152Z,8.02
2022-11-15T15:45:00.793Z,7.43
2022-11-15T15:47:31.346Z,7.05
2022-11-15T15:50:02.221Z,7.32
2022-11-15T15:52:33.259Z,7.70
2022-11-15T15:55:03.699Z,7.50
2022-11-15T15:57:35.085Z,8.52
2022-11-15T16:02:56.621Z,9.20
2022-11-15T16:05:27.382Z,8.90
2022-11-15T16:07:57.972Z,6.95
2022-11-15T16:10:30.577Z,8.07
2022-11-15T16:15:52.510Z,9.02
2022-11-15T16:18:23.782Z,9.27
2022-11-15T16:20:58.807Z,7.57
2022-11-15T16:23:29.416Z,7.25
2022-11-15T16:26:00.232Z,8.98
2022-11-15T16:28:36.394Z,9.07
2022-11-15T16:31:10.921Z,8.75
2022-11-15T16:33:42.274Z,8.43
2022-11-15T16:36:31.030Z,6.95
2022-11-15T16:39:06.093Z,8.65
2022-11-15T16:41:38.168Z,5.93
2022-11-15T16:44:08.658Z,7.55
2022-11-15T16:46:40.048Z,8.63
2022-11-15T16:49:21.291Z,7.80
2022-11-15T16:51:53.281Z,8.30
2022-11-15T16:54:23.857Z,7.90
2022-11-15T16:56:56.831Z,8.35
2022-11-15T16:59:27.442Z,8.60
2022-11-15T17:01:57.933Z,7.47
2022-11-15T17:04:34.014Z,7.10
2022-11-15T17:07:05.420Z,7.25
2022-11-15T17:09:37.579Z,6.55
2022-11-15T17:12:08.720Z,10.02
2022-11-15T17:14:39.832Z,8.27
2022-11-15T17:19:56.525Z,8.32
2022-11-15T17:22:27.326Z,6.20
2022-11-15T17:24:57.876Z,7.10
2022-11-15T17:27:28.631Z,8.25
2022-11-15T17:29:59.074Z,7.15
2022-11-15T17:32:29.766Z,7.50
2022-11-15T17:35:00.157Z,7.43
2022-11-15T17:37:30.548Z,7.68
2022-11-15T17:40:01.793Z,7.53
2022-11-15T17:42:33.264Z,7.88
2022-11-15T17:45:08.391Z,7.07
2022-11-15T17:47:40.889Z,5.47
2022-11-15T17:50:12.843Z,7.15
2022-11-15T17:52:43.508Z,6.57
2022-11-15T17:55:16.906Z,7.03
2022-11-15T17:57:47.251Z,6.88
2022-11-15T18:00:20.794Z,6.53
2022-11-15T18:02:51.393Z,6.05
2022-11-15T18:05:21.924Z,6.05
2022-11-15T18:07:52.806Z,7.13
2022-11-15T18:10:23.399Z,6.75
2022-11-15T18:12:54.082Z,7.13
2022-11-15T18:15:24.537Z,8.07
2022-11-15T18:18:00.661Z,6.90
2022-11-15T18:20:31.362Z,8.48
2022-11-15T18:23:01.783Z,6.10
2022-11-15T18:25:32.366Z,6.38
2022-11-15T18:28:02.812Z,6.55
2022-11-15T18:30:33.427Z,6.38
2022-11-15T18:33:03.933Z,6.20
2022-11-15T18:35:34.541Z,6.85
2022-11-15T18:38:05.039Z,6.07
2022-11-15T18:40:35.593Z,7.50
2022-11-15T18:43:05.997Z,7.25
2022-11-15T18:45:37.328Z,9.27
2022-11-15T18:48:08.753Z,7.72
2022-11-15T18:50:39.163Z,6.85
2022-11-15T18:53:09.737Z,6.97
2022-11-15T18:55:40.029Z,6.78
2022-11-15T18:58:10.422Z,6.35
2022-11-15T19:00:41.055Z,5.63
2022-11-15T19:03:11.584Z,6.05
2022-11-15T19:05:42.147Z,6.32
2022-11-15T19:08:12.682Z,7.40
2022-11-15T19:10:43.131Z,6.15
2022-11-15T19:13:13.811Z,6.63
2022-11-15T19:15:44.376Z,6.32
2022-11-15T19:18:16.505Z,7.65
2022-11-15T19:20:47.079Z,6.78
2022-11-15T19:23:17.715Z,6.65
2022-11-15T19:26:01.371Z,8.18
2022-11-15T19:28:32.970Z,7.63
2022-11-15T19:31:30.624Z,7.43
2022-11-15T19:34:20.953Z,8.60
2022-11-15T19:36:51.584Z,8.13
2022-11-15T19:39:21.984Z,7.15
2022-11-15T19:41:52.711Z,7.07
2022-11-15T19:44:24.001Z,7.07
2022-11-15T19:46:54.258Z,8.60
2022-11-15T19:49:31.517Z,8.02
2022-11-15T19:52:02.344Z,6.75
2022-11-15T19:54:34.309Z,11.02
2022-11-15T19:59:50.742Z,9.32
2022-11-15T20:02:21.431Z,7.28
2022-11-15T20:04:52.156Z,6.80
2022-11-15T20:07:22.880Z,6.80
2022-11-15T20:09:53.728Z,7.38
2022-11-15T20:12:24.367Z,7.57
2022-11-15T20:14:55.035Z,7.82
2022-11-15T20:17:45.787Z,8.25
2022-11-15T20:20:18.035Z,7.35
2022-11-15T20:22:48.749Z,7.03
2022-11-15T20:25:19.050Z,8.30
2022-11-15T20:27:49.532Z,8.20
2022-11-15T20:30:20.843Z,7.80
2022-11-15T20:32:51.323Z,8.77
2022-11-15T20:35:21.674Z,8.30
2022-11-15T20:37:52.278Z,8.07
2022-11-15T20:40:22.788Z,8.60
2022-11-15T20:42:55.622Z,8.60
2022-11-15T20:45:26.333Z,8.35
2022-11-15T20:48:00.733Z,8.88
2022-11-15T20:50:46.662Z,8.25
2022-11-15T20:53:37.421Z,8.27
2022-11-15T20:56:14.538Z,9.05
2022-11-15T20:58:46.987Z,7.75
2022-11-15T21:01:20.939Z,9.50
2022-11-15T21:03:52.552Z,8.75
2022-11-15T21:06:24.454Z,8.30
2022-11-15T21:09:32.829Z,7.70
2022-11-15T21:12:23.136Z,11.48
2022-11-15T21:14:54.239Z,7.85
2022-11-15T21:17:24.830Z,11.43
2022-11-15T21:19:55.266Z,9.55
2022-11-15T21:22:25.874Z,11.20
2022-11-15T21:25:00.096Z,10.48
2022-11-15T21:27:30.833Z,12.20
2022-11-15T21:32:47.212Z,14.27
2022-11-15T21:35:17.833Z,17.35
2022-11-15T21:37:54.947Z,15.98
2022-11-15T21:40:27.303Z,16.80
2022-11-15T21:42:57.724Z,15.95
2022-11-15T21:45:28.389Z,16.33
2022-11-15T21:47:58.912Z,16.20
2022-11-15T21:50:30.747Z,15.55
2022-11-15T21:53:01.718Z,16.15
2022-11-15T21:55:33.302Z,15.75
2022-11-15T21:58:04.009Z,15.15
2022-11-15T22:00:52.928Z,17.23
2022-11-15T22:03:23.561Z,15.25
2022-11-15T22:05:57.387Z,16.13
2022-11-15T22:11:13.349Z,13.90
2022-11-15T22:13:44.292Z,16.15
2022-11-15T22:16:14.915Z,15.85
2022-11-15T22:18:45.596Z,13.73
2022-11-15T22:21:18.522Z,14.07
2022-11-15T22:23:49.199Z,14.85
2022-11-15T22:26:23.803Z,13.95
2022-11-15T22:28:54.970Z,13.57
2022-11-15T22:31:45.252Z,16.83
2022-11-15T22:34:15.777Z,12.57
2022-11-15T22:37:18.344Z,16.42
2022-11-15T22:39:37.643Z,13.82
2022-11-15T22:42:09.150Z,14.98
2022-11-15T22:44:39.806Z,13.90
2022-11-15T22:47:10.272Z,13.68
2022-11-15T22:52:24.523Z,13.95
2022-11-15T22:54:55.087Z,15.05
2022-11-15T22:57:25.753Z,12.43
2022-11-15T22:59:56.516Z,11.93
2022-11-15T23:02:29.049Z,13.63
2022-11-15T23:04:59.880Z,13.07
2022-11-15T23:07:31.046Z,11.93
2022-11-15T23:10:20.118Z,14.20
2022-11-15T23:13:08.983Z,13.88
2022-11-15T23:15:58.309Z,13.57
2022-11-15T23:18:30.295Z,11.05
2022-11-15T23:21:09.552Z,11.45
2022-11-15T23:23:40.684Z,13.15
2022-11-15T23:26:11.280Z,12.00
2022-11-15T23:29:01.822Z,12.20
2022-11-15T23:34:38.758Z,12.75
2022-11-15T23:37:11.059Z,12.18
2022-11-15T23:39:42.131Z,11.63
2022-11-15T23:42:20.681Z,11.98
2022-11-15T23:44:51.793Z,12.13
2022-11-15T23:47:22.551Z,11.20
2022-11-15T23:49:53.048Z,11.48
2022-11-15T23:52:24.576Z,12.23
2022-11-15T23:54:54.957Z,12.98
2022-11-15T23:57:25.792Z,12.93
2022-11-15T23:59:57.711Z,12.70
